Time;durP1;ratioP1;P1;durP2;ratioP2;P2;SDS_P1;SDS_P2;PMS_P1;PMS_P2;Temp;Humidity;BMP_temperature;BMP_pressure;BME280_temperature;BME280_humidity;BME280_pressure;Samples;Min_cycle;Max_cycle;Signal;HPM_P1;HPM_P2
2023/01/22 00:02:02;;;;;;;23.13;15.82;;;;;;;;;;5136773;27;20714;-65
2023/01/22 00:04:31;;;;;;;27.65;17.63;;;;;;;;;;5136882;27;20200;-66
2023/01/22 00:06:58;;;;;;;23.15;16.02;;;;;;;;;;5136645;27;20654;-65
2023/01/22 00:09:25;;;;;;;22.52;15.18;;;;;;;;;;5136759;27;20229;-65
2023/01/22 00:11:52;;;;;;;22.83;14.60;;;;;;;;;;5136906;27;20214;-66
2023/01/22 00:14:20;;;;;;;22.38;14.60;;;;;;;;;;5136717;27;20285;-65
2023/01/22 00:16:47;;;;;;;20.50;14.95;;;;;;;;;;5136784;27;20295;-66
2023/01/22 00:19:14;;;;;;;21.45;14.48;;;;;;;;;;5136229;27;20221;-65
2023/01/22 00:21:43;;;;;;;21.67;15.05;;;;;;;;;;5136364;27;20635;-66
2023/01/22 00:24:10;;;;;;;19.67;14.82;;;;;;;;;;5136567;27;20201;-65
2023/01/22 00:26:37;;;;;;;19.98;14.60;;;;;;;;;;5136601;27;20203;-66
2023/01/22 00:29:04;;;;;;;24.23;15.43;;;;;;;;;;5136313;27;20224;-67
2023/01/22 00:31:32;;;;;;;21.13;15.23;;;;;;;;;;5136725;27;20285;-66
2023/01/22 00:33:59;;;;;;;24.63;17.30;;;;;;;;;;5136610;27;20192;-66
2023/01/22 00:36:26;;;;;;;22.75;15.82;;;;;;;;;;5136490;27;20201;-66
2023/01/22 00:38:55;;;;;;;23.05;15.65;;;;;;;;;;5136211;27;20247;-66
2023/01/22 00:41:22;;;;;;;21.80;14.80;;;;;;;;;;5136246;27;20193;-66
2023/01/22 00:43:49;;;;;;;22.00;14.20;;;;;;;;;;5136142;27;20213;-66
2023/01/22 00:46:17;;;;;;;21.00;13.35;;;;;;;;;;5135895;27;20669;-65
2023/01/22 00:48:45;;;;;;;22.58;15.70;;;;;;;;;;5135736;27;20200;-66
2023/01/22 00:51:13;;;;;;;22.70;14.95;;;;;;;;;;5135980;27;20185;-66
2023/01/22 00:53:42;;;;;;;22.85;14.95;;;;;;;;;;5136370;27;20280;-66
2023/01/22 00:56:11;;;;;;;19.65;14.48;;;;;;;;;;5133019;27;20240;-66
2023/01/22 00:58:38;;;;;;;17.92;13.75;;;;;;;;;;5115458;28;20181;-66
2023/01/22 01:01:06;;;;;;;21.35;14.05;;;;;;;;;;5115435;28;20312;-66
2023/01/22 01:03:33;;;;;;;19.80;13.27;;;;;;;;;;5114951;28;20208;-66
2023/01/22 01:06:02;;;;;;;17.67;13.80;;;;;;;;;;5115117;28;20189;-66
2023/01/22 01:08:30;;;;;;;21.02;13.70;;;;;;;;;;5115233;28;20301;-66
2023/01/22 01:10:57;;;;;;;17.38;13.30;;;;;;;;;;5115018;28;20202;-66
2023/01/22 01:13:26;;;;;;;17.98;12.50;;;;;;;;;;5114732;28;20199;-66
2023/01/22 01:16:00;;;;;;;20.23;13.55;;;;;;;;;;5114899;28;20192;-66
2023/01/22 01:18:27;;;;;;;19.25;13.13;;;;;;;;;;5115285;28;20185;-66
2023/01/22 01:20:55;;;;;;;18.13;13.43;;;;;;;;;;5114751;28;20221;-66
2023/01/22 01:23:22;;;;;;;17.67;12.55;;;;;;;;;;5114843;28;20280;-66
2023/01/22 01:25:49;;;;;;;17.65;12.00;;;;;;;;;;5114674;28;20223;-66
2023/01/22 01:28:17;;;;;;;16.50;12.18;;;;;;;;;;5114770;28;20197;-66
2023/01/22 01:30:45;;;;;;;21.02;13.85;;;;;;;;;;5114576;28;20206;-66
2023/01/22 01:33:12;;;;;;;14.77;11.02;;;;;;;;;;5114630;28;20198;-66
2023/01/22 01:35:40;;;;;;;16.30;12.30;;;;;;;;;;5114187;28;20198;-66
2023/01/22 01:38:07;;;;;;;17.88;11.95;;;;;;;;;;5114337;28;20673;-66
2023/01/22 01:40:34;;;;;;;18.85;12.75;;;;;;;;;;5113183;28;20221;-66
2023/01/22 01:43:01;;;;;;;16.73;10.55;;;;;;;;;;5114366;28;20197;-66
2023/01/22 01:45:30;;;;;;;15.35;12.68;;;;;;;;;;5114368;28;20193;-66
2023/01/22 01:48:02;;;;;;;14.65;11.98;;;;;;;;;;5114069;28;20193;-66
2023/01/22 01:50:29;;;;;;;18.05;13.18;;;;;;;;;;5114671;28;20288;-66
2023/01/22 01:52:57;;;;;;;16.23;12.57;;;;;;;;;;5114306;28;20194;-66
2023/01/22 01:55:27;;;;;;;13.63;11.20;;;;;;;;;;5113858;28;20656;-66
2023/01/22 01:57:56;;;;;;;16.48;14.63;;;;;;;;;;5113871;28;20243;-66
2023/01/22 02:00:23;;;;;;;20.33;13.23;;;;;;;;;;5114251;28;20222;-66
2023/01/22 02:02:50;;;;;;;16.92;12.50;;;;;;;;;;5114080;28;20193;-65
2023/01/22 02:05:20;;;;;;;17.77;14.70;;;;;;;;;;5113912;28;20204;-66
2023/01/22 02:07:47;;;;;;;17.45;12.48;;;;;;;;;;5114247;28;20281;-66
2023/01/22 02:10:14;;;;;;;20.17;13.25;;;;;;;;;;5114177;28;20561;-66
2023/01/22 02:12:41;;;;;;;23.50;13.80;;;;;;;;;;5113604;28;20197;-66
2023/01/22 02:15:09;;;;;;;16.83;12.60;;;;;;;;;;5113491;28;20194;-66
2023/01/22 02:17:36;;;;;;;19.55;13.82;;;;;;;;;;5113516;28;20639;-66
2023/01/22 02:20:04;;;;;;;19.17;13.23;;;;;;;;;;5113700;28;20555;-66
2023/01/22 02:22:34;;;;;;;19.90;13.68;;;;;;;;;;5113921;28;20211;-66
2023/01/22 02:25:01;;;;;;;20.92;15.55;;;;;;;;;;5113782;28;20190;-66
2023/01/22 02:27:28;;;;;;;19.33;14.80;;;;;;;;;;5113355;28;20204;-66
2023/01/22 02:29:55;;;;;;;20.63;14.48;;;;;;;;;;5113569;28;20207;-66
2023/01/22 02:32:22;;;;;;;22.73;15.57;;;;;;;;;;5113625;28;20199;-65
2023/01/22 02:34:49;;;;;;;21.35;16.00;;;;;;;;;;5113544;28;20278;-66
2023/01/22 02:37:17;;;;;;;21.88;14.20;;;;;;;;;;5113590;28;20189;-66
2023/01/22 02:39:45;;;;;;;22.38;14.18;;;;;;;;;;5113491;28;20216;-66
2023/01/22 02:42:13;;;;;;;18.88;14.30;;;;;;;;;;5113412;28;20211;-66
2023/01/22 02:44:40;;;;;;;22.05;16.30;;;;;;;;;;5113217;28;20623;-66
2023/01/22 02:47:07;;;;;;;18.73;13.32;;;;;;;;;;5113361;28;20561;-66
2023/01/22 02:49:34;;;;;;;24.95;14.25;;;;;;;;;;5113452;28;20193;-66
2023/01/22 02:52:01;;;;;;;18.10;14.15;;;;;;;;;;5113162;28;20189;-66
2023/01/22 02:54:29;;;;;;;21.38;14.40;;;;;;;;;;5113931;28;20196;-66
2023/01/22 02:56:57;;;;;;;19.73;13.43;;;;;;;;;;5113248;28;20229;-66
2023/01/22 02:59:24;;;;;;;22.45;15.50;;;;;;;;;;5113291;28;20192;-66
2023/01/22 03:01:51;;;;;;;20.13;15.82;;;;;;;;;;5113143;28;20226;-66
2023/01/22 03:04:19;;;;;;;22.80;15.98;;;;;;;;;;5113288;28;20502;-66
2023/01/22 03:06:47;;;;;;;23.13;16.77;;;;;;;;;;5113239;28;20196;-66
2023/01/22 03:09:15;;;;;;;20.00;14.65;;;;;;;;;;5112890;28;20205;-66
2023/01/22 03:11:44;;;;;;;19.60;14.57;;;;;;;;;;5113089;28;20198;-66
2023/01/22 03:22:27;;;;;;;20.83;15.13;;;;;;;;;;5112840;28;20184;-66
2023/01/22 03:24:55;;;;;;;25.55;16.27;;;;;;;;;;5113087;28;20193;-65
2023/01/22 03:27:24;;;;;;;24.30;15.43;;;;;;;;;;5112592;28;20567;-66
2023/01/22 03:29:53;;;;;;;24.23;16.63;;;;;;;;;;5112766;28;20649;-65
2023/01/22 03:32:20;;;;;;;29.05;18.13;;;;;;;;;;5112951;28;20197;-65
2023/01/22 03:34:47;;;;;;;24.58;15.75;;;;;;;;;;5112606;28;20201;-65
2023/01/22 03:37:14;;;;;;;28.10;18.23;;;;;;;;;;5112614;28;20208;-65
2023/01/22 03:39:42;;;;;;;24.55;15.57;;;;;;;;;;5112489;28;20197;-65
2023/01/22 03:42:09;;;;;;;24.77;18.13;;;;;;;;;;5112572;28;20194;-65
2023/01/22 03:44:36;;;;;;;28.60;17.35;;;;;;;;;;5112610;28;20650;-65
2023/01/22 03:47:05;;;;;;;33.22;20.48;;;;;;;;;;5112477;28;20198;-65
2023/01/22 03:49:32;;;;;;;28.35;15.98;;;;;;;;;;5112931;28;20203;-66
2023/01/22 03:51:59;;;;;;;32.97;18.15;;;;;;;;;;5113078;28;20192;-65
2023/01/22 03:54:26;;;;;;;30.38;18.70;;;;;;;;;;5112752;28;20207;-65
2023/01/22 03:56:53;;;;;;;27.80;18.35;;;;;;;;;;5112570;28;20220;-65
2023/01/22 03:59:21;;;;;;;25.92;17.40;;;;;;;;;;5113043;28;20189;-65
2023/01/22 04:01:49;;;;;;;28.40;17.50;;;;;;;;;;5112458;28;20217;-66
2023/01/22 04:04:18;;;;;;;26.35;17.73;;;;;;;;;;5113821;28;20193;-65
2023/01/22 04:06:45;;;;;;;31.50;17.75;;;;;;;;;;5115956;28;20197;-67
2023/01/22 04:09:12;;;;;;;30.52;18.08;;;;;;;;;;5116084;28;20195;-66
2023/01/22 04:11:39;;;;;;;30.13;17.50;;;;;;;;;;5115850;28;20204;-66
2023/01/22 04:14:06;;;;;;;26.33;16.83;;;;;;;;;;5115977;28;20197;-66
2023/01/22 04:16:34;;;;;;;32.55;18.67;;;;;;;;;;5115878;28;20646;-66
2023/01/22 04:19:01;;;;;;;30.35;17.63;;;;;;;;;;5116184;28;20197;-66
2023/01/22 04:21:30;;;;;;;33.63;19.50;;;;;;;;;;5115676;28;20215;-66
2023/01/22 04:23:57;;;;;;;37.15;18.83;;;;;;;;;;5115750;28;20652;-66
2023/01/22 04:26:24;;;;;;;38.05;19.98;;;;;;;;;;5116027;28;20215;-66
2023/01/22 04:28:51;;;;;;;27.23;16.13;;;;;;;;;;5115692;28;20193;-66
2023/01/22 04:31:18;;;;;;;38.05;18.73;;;;;;;;;;5115581;28;20291;-66
2023/01/22 04:33:46;;;;;;;30.55;20.40;;;;;;;;;;5115881;28;20192;-66
2023/01/22 04:36:13;;;;;;;32.47;19.48;;;;;;;;;;5115847;28;20195;-66
2023/01/22 04:38:41;;;;;;;29.45;18.38;;;;;;;;;;5115722;28;20192;-66
2023/01/22 04:41:09;;;;;;;34.35;18.63;;;;;;;;;;5115696;28;20243;-66
2023/01/22 04:43:36;;;;;;;24.52;17.38;;;;;;;;;;5115509;28;20197;-66
2023/01/22 04:46:03;;;;;;;33.33;19.75;;;;;;;;;;5115350;28;20196;-65
2023/01/22 04:48:30;;;;;;;30.98;18.63;;;;;;;;;;5115326;28;20193;-66
2023/01/22 04:50:57;;;;;;;28.55;18.35;;;;;;;;;;5115158;28;20212;-66
2023/01/22 04:53:24;;;;;;;34.35;20.42;;;;;;;;;;5115267;28;20197;-66
2023/01/22 04:55:53;;;;;;;27.33;16.60;;;;;;;;;;5115447;28;20193;-66
2023/01/22 04:58:20;;;;;;;24.95;16.20;;;;;;;;;;5115507;28;20192;-66
2023/01/22 05:00:47;;;;;;;26.90;18.88;;;;;;;;;;5114423;28;20231;-66
2023/01/22 05:03:15;;;;;;;31.90;18.73;;;;;;;;;;5113915;28;20189;-66
2023/01/22 05:05:42;;;;;;;31.80;20.00;;;;;;;;;;5114327;28;20590;-66
2023/01/22 05:08:09;;;;;;;28.92;18.83;;;;;;;;;;5114223;28;20558;-67
2023/01/22 05:10:36;;;;;;;30.83;17.33;;;;;;;;;;5114612;28;20196;-67
2023/01/22 05:13:06;;;;;;;24.38;15.90;;;;;;;;;;5114198;28;20189;-66
2023/01/22 05:15:33;;;;;;;28.50;18.33;;;;;;;;;;5114388;28;20218;-66
2023/01/22 05:18:01;;;;;;;27.35;20.33;;;;;;;;;;5114774;28;20499;-66
2023/01/22 05:20:28;;;;;;;28.67;18.45;;;;;;;;;;5114385;28;20196;-66
2023/01/22 05:22:56;;;;;;;26.77;18.50;;;;;;;;;;5114554;28;20203;-66
2023/01/22 05:25:23;;;;;;;25.30;17.25;;;;;;;;;;5114773;28;20199;-66
2023/01/22 05:27:50;;;;;;;29.50;19.45;;;;;;;;;;5114307;28;20193;-66
2023/01/22 05:30:19;;;;;;;34.30;18.70;;;;;;;;;;5114505;28;20197;-66
2023/01/22 05:32:46;;;;;;;28.85;19.05;;;;;;;;;;5114531;28;20638;-66
2023/01/22 05:35:13;;;;;;;35.08;21.45;;;;;;;;;;5114153;28;20669;-66
2023/01/22 05:37:40;;;;;;;28.50;18.63;;;;;;;;;;5114171;28;20645;-66
2023/01/22 05:40:09;;;;;;;30.90;19.38;;;;;;;;;;5114394;28;20650;-66
2023/01/22 05:42:36;;;;;;;30.02;20.20;;;;;;;;;;5113750;28;20263;-66
2023/01/22 05:45:03;;;;;;;34.15;20.20;;;;;;;;;;5114163;28;20192;-66
2023/01/22 05:47:31;;;;;;;33.92;19.35;;;;;;;;;;5114873;28;20193;-67
2023/01/22 05:49:59;;;;;;;35.25;21.23;;;;;;;;;;5114468;28;20216;-66
2023/01/22 05:52:26;;;;;;;34.30;20.95;;;;;;;;;;5113988;28;20197;-66
2023/01/22 05:54:53;;;;;;;36.40;21.90;;;;;;;;;;5113945;28;20223;-66
2023/01/22 05:57:20;;;;;;;38.22;20.08;;;;;;;;;;5127269;27;20315;-66
2023/01/22 05:59:48;;;;;;;32.33;20.42;;;;;;;;;;5134184;27;20192;-66
2023/01/22 06:02:15;;;;;;;37.25;20.23;;;;;;;;;;5133765;27;20212;-66
2023/01/22 06:04:43;;;;;;;28.05;18.63;;;;;;;;;;5134588;27;20197;-66
2023/01/22 06:07:11;;;;;;;32.78;19.13;;;;;;;;;;5135118;27;20289;-66
2023/01/22 06:09:38;;;;;;;36.03;21.58;;;;;;;;;;5134288;27;20198;-66
2023/01/22 06:12:05;;;;;;;34.35;20.30;;;;;;;;;;5134535;27;20287;-66
2023/01/22 06:14:32;;;;;;;34.08;22.20;;;;;;;;;;5133984;27;20193;-66
2023/01/22 06:17:00;;;;;;;37.03;20.58;;;;;;;;;;5134500;27;20204;-66
2023/01/22 06:19:28;;;;;;;42.35;22.35;;;;;;;;;;5134398;27;20188;-66
2023/01/22 06:21:56;;;;;;;40.15;20.48;;;;;;;;;;5134067;27;20557;-66
2023/01/22 06:24:23;;;;;;;37.80;22.02;;;;;;;;;;5134143;27;20192;-66
2023/01/22 06:26:50;;;;;;;34.28;21.40;;;;;;;;;;5133917;27;20194;-66
2023/01/22 06:29:18;;;;;;;34.63;21.52;;;;;;;;;;5134223;27;20192;-66
2023/01/22 06:31:45;;;;;;;35.08;21.48;;;;;;;;;;5133686;27;20279;-66
2023/01/22 06:34:12;;;;;;;36.13;20.30;;;;;;;;;;5134005;27;20536;-66
2023/01/22 06:36:39;;;;;;;38.40;22.30;;;;;;;;;;5134202;27;20526;-66
2023/01/22 06:39:08;;;;;;;35.63;20.08;;;;;;;;;;5134189;27;20191;-66
2023/01/22 06:41:35;;;;;;;33.95;20.63;;;;;;;;;;5133596;27;20216;-66
2023/01/22 06:44:02;;;;;;;36.92;20.73;;;;;;;;;;5133798;27;20203;-66
2023/01/22 06:46:29;;;;;;;34.13;19.52;;;;;;;;;;5133954;27;20192;-66
2023/01/22 06:48:57;;;;;;;34.10;16.75;;;;;;;;;;5133823;27;20193;-66
2023/01/22 06:51:24;;;;;;;31.83;18.88;;;;;;;;;;5134263;27;20196;-67
2023/01/22 06:53:52;;;;;;;35.45;20.10;;;;;;;;;;5133637;27;20200;-66
2023/01/22 06:56:20;;;;;;;34.22;20.70;;;;;;;;;;5133891;27;20248;-66
2023/01/22 06:58:48;;;;;;;31.20;19.73;;;;;;;;;;5134060;27;20204;-66
2023/01/22 07:01:15;;;;;;;35.42;18.85;;;;;;;;;;5133037;28;20215;-66
2023/01/22 07:03:42;;;;;;;29.58;19.75;;;;;;;;;;5133461;28;20200;-66
2023/01/22 07:06:10;;;;;;;37.83;20.65;;;;;;;;;;5133847;28;20191;-66
2023/01/22 07:08:37;;;;;;;32.17;20.67;;;;;;;;;;5134148;28;20486;-66
2023/01/22 07:11:05;;;;;;;35.53;19.25;;;;;;;;;;5133689;28;20649;-65
2023/01/22 07:13:34;;;;;;;40.78;21.48;;;;;;;;;;5133743;28;20230;-66
2023/01/22 07:16:02;;;;;;;34.50;20.17;;;;;;;;;;5133489;28;20455;-65
2023/01/22 07:18:29;;;;;;;34.67;19.45;;;;;;;;;;5133885;28;20200;-65
2023/01/22 07:20:56;;;;;;;33.63;19.83;;;;;;;;;;5133174;28;20195;-66
2023/01/22 07:23:23;;;;;;;31.75;19.45;;;;;;;;;;5132892;28;20185;-66
2023/01/22 07:25:51;;;;;;;37.15;21.25;;;;;;;;;;5133620;28;20656;-65
2023/01/22 07:28:18;;;;;;;34.83;20.77;;;;;;;;;;5133550;28;20294;-65
2023/01/22 07:30:46;;;;;;;32.80;19.33;;;;;;;;;;5133291;28;20192;-65
2023/01/22 07:33:14;;;;;;;30.83;19.08;;;;;;;;;;5133390;28;20200;-66
2023/01/22 07:35:41;;;;;;;33.72;19.58;;;;;;;;;;5133276;28;20189;-65
2023/01/22 07:38:09;;;;;;;33.80;19.58;;;;;;;;;;5133489;27;20205;-65
2023/01/22 07:40:36;;;;;;;30.58;18.27;;;;;;;;;;5136817;27;20217;-65
2023/01/22 07:43:06;;;;;;;30.25;19.42;;;;;;;;;;5137344;27;20219;-65
2023/01/22 07:45:33;;;;;;;32.13;19.77;;;;;;;;;;5137361;27;20328;-65
2023/01/22 07:48:02;;;;;;;30.05;17.33;;;;;;;;;;5137306;27;20192;-65
2023/01/22 07:50:31;;;;;;;34.33;19.58;;;;;;;;;;5137178;27;20283;-65
2023/01/22 07:52:59;;;;;;;34.17;19.13;;;;;;;;;;5137081;27;20650;-65
2023/01/22 07:55:26;;;;;;;34.85;19.02;;;;;;;;;;5136925;27;20200;-65
2023/01/22 07:57:57;;;;;;;31.17;17.38;;;;;;;;;;5136884;27;20226;-65
2023/01/22 08:00:25;;;;;;;31.02;19.15;;;;;;;;;;5136707;27;20226;-65
2023/01/22 08:02:52;;;;;;;22.95;16.30;;;;;;;;;;5137197;27;20220;-65
2023/01/22 08:05:20;;;;;;;32.97;18.92;;;;;;;;;;5136561;27;20286;-65
2023/01/22 08:07:48;;;;;;;27.77;18.88;;;;;;;;;;5137319;27;20188;-65
2023/01/22 08:10:15;;;;;;;31.15;17.70;;;;;;;;;;5136863;27;20194;-65
2023/01/22 08:12:42;;;;;;;32.13;18.38;;;;;;;;;;5136813;27;20235;-65
2023/01/22 08:15:10;;;;;;;29.15;17.73;;;;;;;;;;5136650;27;20549;-65
2023/01/22 08:17:37;;;;;;;27.05;17.15;;;;;;;;;;5136318;27;20208;-65
2023/01/22 08:20:05;;;;;;;29.45;17.52;;;;;;;;;;5136029;27;20196;-65
2023/01/22 08:22:34;;;;;;;30.40;19.35;;;;;;;;;;5136452;27;20224;-65
2023/01/22 08:25:01;;;;;;;31.75;18.63;;;;;;;;;;5136098;27;20654;-65
2023/01/22 08:27:28;;;;;;;28.67;18.15;;;;;;;;;;5136186;27;20203;-65
2023/01/22 08:29:55;;;;;;;34.47;18.30;;;;;;;;;;5136601;27;20196;-65
2023/01/22 08:32:23;;;;;;;26.23;18.15;;;;;;;;;;5136894;27;20203;-65
2023/01/22 08:34:53;;;;;;;25.33;16.95;;;;;;;;;;5135781;27;20197;-65
2023/01/22 08:37:20;;;;;;;24.52;16.88;;;;;;;;;;5136050;27;20194;-64
2023/01/22 08:39:48;;;;;;;27.48;17.90;;;;;;;;;;5135999;27;20198;-64
2023/01/22 08:42:16;;;;;;;30.80;18.80;;;;;;;;;;5136071;27;20219;-65
2023/01/22 08:44:43;;;;;;;30.65;17.85;;;;;;;;;;5135981;27;20189;-65
2023/01/22 08:47:10;;;;;;;27.33;17.08;;;;;;;;;;5135683;27;20188;-63
2023/01/22 08:49:37;;;;;;;31.05;19.10;;;;;;;;;;5135350;27;20193;-64
2023/01/22 08:52:05;;;;;;;25.27;16.15;;;;;;;;;;5135860;27;20287;-64
2023/01/22 08:54:32;;;;;;;29.02;17.15;;;;;;;;;;5135691;27;20346;-65
2023/01/22 08:57:00;;;;;;;30.75;17.42;;;;;;;;;;5135753;27;20224;-64
2023/01/22 08:59:28;;;;;;;26.20;17.98;;;;;;;;;;5135780;27;20199;-65
2023/01/22 09:01:55;;;;;;;25.58;17.45;;;;;;;;;;5134886;27;20219;-67
2023/01/22 09:04:22;;;;;;;28.60;17.88;;;;;;;;;;5135131;27;20503;-64
2023/01/22 09:06:49;;;;;;;29.42;18.50;;;;;;;;;;5135043;27;20193;-65
2023/01/22 09:09:16;;;;;;;29.45;17.58;;;;;;;;;;5135528;27;20193;-64
2023/01/22 09:11:45;;;;;;;30.85;18.88;;;;;;;;;;5134829;27;20212;-64
2023/01/22 09:14:14;;;;;;;29.25;19.35;;;;;;;;;;5135522;27;20216;-64
2023/01/22 09:16:41;;;;;;;30.67;19.27;;;;;;;;;;5135542;27;20195;-64
2023/01/22 09:19:08;;;;;;;27.98;17.10;;;;;;;;;;5135582;27;20222;-64
2023/01/22 09:21:36;;;;;;;28.20;18.58;;;;;;;;;;5135389;27;20219;-64
2023/01/22 09:24:04;;;;;;;38.17;20.15;;;;;;;;;;5135012;27;20238;-64
2023/01/22 09:26:32;;;;;;;28.13;19.50;;;;;;;;;;5135385;27;20219;-64
2023/01/22 09:28:59;;;;;;;29.02;19.20;;;;;;;;;;5134770;27;20196;-64
2023/01/22 09:31:28;;;;;;;37.88;20.05;;;;;;;;;;5135116;27;20268;-65
2023/01/22 09:33:55;;;;;;;27.70;16.27;;;;;;;;;;5134890;27;20202;-64
2023/01/22 09:36:23;;;;;;;31.63;17.00;;;;;;;;;;5135093;27;20196;-64
2023/01/22 09:38:50;;;;;;;33.55;18.52;;;;;;;;;;5134865;27;20192;-64
2023/01/22 09:41:20;;;;;;;27.75;19.23;;;;;;;;;;5135109;27;20192;-64
2023/01/22 09:43:50;;;;;;;31.35;19.50;;;;;;;;;;5135127;27;20215;-64
2023/01/22 09:46:19;;;;;;;30.17;16.98;;;;;;;;;;5134945;27;20196;-65
2023/01/22 09:48:51;;;;;;;27.88;19.15;;;;;;;;;;5134396;27;20223;-64
2023/01/22 09:51:21;;;;;;;32.08;18.92;;;;;;;;;;5134275;27;20196;-64
2023/01/22 09:53:51;;;;;;;29.83;17.88;;;;;;;;;;5134664;27;20249;-64
2023/01/22 09:56:20;;;;;;;33.20;20.48;;;;;;;;;;5134163;27;20320;-64
2023/01/22 09:58:48;;;;;;;25.75;18.13;;;;;;;;;;5134838;27;20203;-63
2023/01/22 10:01:17;;;;;;;29.75;17.15;;;;;;;;;;5134600;27;20219;-64
2023/01/22 10:03:46;;;;;;;26.30;16.15;;;;;;;;;;5134127;27;20212;-64
2023/01/22 10:06:17;;;;;;;26.15;17.90;;;;;;;;;;5134631;27;20561;-64
2023/01/22 10:08:51;;;;;;;21.58;16.02;;;;;;;;;;5134584;27;20184;-66
2023/01/22 10:11:18;;;;;;;28.13;15.05;;;;;;;;;;5134237;27;20180;-67
2023/01/22 10:13:45;;;;;;;24.17;17.40;;;;;;;;;;5134230;27;20228;-66
2023/01/22 10:16:13;;;;;;;29.08;18.38;;;;;;;;;;5134267;27;20549;-66
2023/01/22 10:18:42;;;;;;;23.88;17.55;;;;;;;;;;5134143;27;20645;-64
2023/01/22 10:21:14;;;;;;;23.45;17.38;;;;;;;;;;5133979;27;20663;-64
2023/01/22 10:23:44;;;;;;;29.70;17.92;;;;;;;;;;5134413;27;20212;-64
2023/01/22 10:26:14;;;;;;;30.73;17.60;;;;;;;;;;5133904;27;20293;-64
2023/01/22 10:28:44;;;;;;;31.25;18.13;;;;;;;;;;5133917;27;20211;-64
2023/01/22 10:31:21;;;;;;;28.65;18.50;;;;;;;;;;5133783;27;20196;-65
2023/01/22 10:33:48;;;;;;;24.80;17.75;;;;;;;;;;5133736;27;20216;-64
2023/01/22 10:36:15;;;;;;;27.35;18.42;;;;;;;;;;5134067;27;20196;-64
2023/01/22 10:38:45;;;;;;;25.90;18.05;;;;;;;;;;5133632;27;20192;-64
2023/01/22 10:41:17;;;;;;;24.45;16.90;;;;;;;;;;5134193;27;20192;-63
2023/01/22 10:43:47;;;;;;;28.10;17.70;;;;;;;;;;5133568;27;20211;-63
2023/01/22 10:46:19;;;;;;;22.67;15.98;;;;;;;;;;5134312;27;20196;-63
2023/01/22 10:48:46;;;;;;;26.02;17.23;;;;;;;;;;5133644;27;20222;-63
2023/01/22 10:51:14;;;;;;;27.23;17.20;;;;;;;;;;5133391;27;20622;-63
2023/01/22 10:53:47;;;;;;;22.65;16.15;;;;;;;;;;5133366;27;20653;-63
2023/01/22 10:56:25;;;;;;;23.95;16.75;;;;;;;;;;5133556;27;20692;-63
2023/01/22 10:58:52;;;;;;;27.67;17.35;;;;;;;;;;5133856;27;20186;-63
2023/01/22 11:01:25;;;;;;;25.15;18.55;;;;;;;;;;5133750;28;20189;-63
2023/01/22 11:03:53;;;;;;;27.65;18.58;;;;;;;;;;5133514;28;20254;-62
2023/01/22 11:06:23;;;;;;;28.10;17.88;;;;;;;;;;5134019;28;20526;-63
2023/01/22 11:08:53;;;;;;;24.50;17.75;;;;;;;;;;5133252;28;20509;-63
2023/01/22 11:11:26;;;;;;;23.45;15.02;;;;;;;;;;5133045;28;20197;-64
2023/01/22 11:13:58;;;;;;;24.83;17.55;;;;;;;;;;5135683;27;20188;-63
2023/01/22 11:16:26;;;;;;;23.10;17.25;;;;;;;;;;5137623;27;20177;-64
2023/01/22 11:18:55;;;;;;;24.48;15.80;;;;;;;;;;5137724;27;20214;-64
2023/01/22 11:21:26;;;;;;;21.88;16.63;;;;;;;;;;5138371;27;20188;-64
2023/01/22 11:23:56;;;;;;;25.38;17.48;;;;;;;;;;5137718;27;20204;-64
2023/01/22 11:26:30;;;;;;;23.08;17.35;;;;;;;;;;5137483;27;20197;-64
2023/01/22 11:29:04;;;;;;;25.83;18.65;;;;;;;;;;5137461;27;20627;-64
2023/01/22 11:31:40;;;;;;;27.10;18.85;;;;;;;;;;5137752;27;20324;-64
2023/01/22 11:34:14;;;;;;;35.83;18.98;;;;;;;;;;5137200;27;20276;-64
2023/01/22 11:36:44;;;;;;;32.40;18.55;;;;;;;;;;5138172;27;20192;-64
2023/01/22 11:39:15;;;;;;;31.60;18.17;;;;;;;;;;5137737;27;20549;-64
2023/01/22 11:41:54;;;;;;;27.60;17.73;;;;;;;;;;5137567;27;20191;-64
2023/01/22 11:44:30;;;;;;;26.55;17.60;;;;;;;;;;5137424;27;20538;-64
2023/01/22 11:47:04;;;;;;;24.23;17.08;;;;;;;;;;5137585;27;20182;-65
2023/01/22 11:49:37;;;;;;;27.33;17.92;;;;;;;;;;5137035;27;20275;-65
2023/01/22 11:52:11;;;;;;;26.98;18.77;;;;;;;;;;5137211;27;20183;-64
2023/01/22 11:54:56;;;;;;;26.45;18.30;;;;;;;;;;5137058;27;20313;-65
2023/01/22 11:57:28;;;;;;;27.08;17.35;;;;;;;;;;5137024;27;20221;-65
2023/01/22 12:00:11;;;;;;;25.60;18.25;;;;;;;;;;5136594;27;20176;-65
2023/01/22 12:02:47;;;;;;;24.30;17.95;;;;;;;;;;5136824;27;20632;-65
2023/01/22 12:05:18;;;;;;;28.27;18.45;;;;;;;;;;5137275;27;20181;-65
2023/01/22 12:07:59;;;;;;;22.73;17.05;;;;;;;;;;5136587;27;20680;-65
2023/01/22 12:10:34;;;;;;;26.33;15.88;;;;;;;;;;5137429;27;20180;-64
2023/01/22 12:13:06;;;;;;;31.45;18.58;;;;;;;;;;5136971;27;20193;-65
2023/01/22 12:15:39;;;;;;;30.23;17.20;;;;;;;;;;5136891;27;20185;-64
2023/01/22 12:18:17;;;;;;;22.08;16.35;;;;;;;;;;5136534;27;20186;-65
2023/01/22 12:20:50;;;;;;;29.85;17.20;;;;;;;;;;5137089;27;20180;-65
2023/01/22 12:23:21;;;;;;;23.90;17.48;;;;;;;;;;5136500;27;20237;-65
2023/01/22 12:25:49;;;;;;;28.02;18.70;;;;;;;;;;5136111;27;20202;-65
2023/01/22 12:28:19;;;;;;;28.33;16.73;;;;;;;;;;5137024;27;20193;-65
2023/01/22 12:30:50;;;;;;;29.83;17.70;;;;;;;;;;5135550;27;20207;-66
2023/01/22 12:33:19;;;;;;;25.70;16.65;;;;;;;;;;5136005;27;20199;-65
2023/01/22 12:35:49;;;;;;;27.95;17.83;;;;;;;;;;5136142;27;20197;-65
2023/01/22 12:38:21;;;;;;;31.00;18.15;;;;;;;;;;5136346;27;20195;-65
2023/01/22 12:40:56;;;;;;;23.10;17.63;;;;;;;;;;5136526;27;20190;-65
2023/01/22 12:43:30;;;;;;;24.73;17.20;;;;;;;;;;5136222;27;20208;-65
2023/01/22 12:46:01;;;;;;;24.75;17.75;;;;;;;;;;5136326;27;20189;-65
2023/01/22 12:48:32;;;;;;;24.08;16.20;;;;;;;;;;5135826;27;20177;-65
2023/01/22 12:50:59;;;;;;;30.02;17.38;;;;;;;;;;5135455;27;20187;-66
2023/01/22 12:53:28;;;;;;;30.25;16.58;;;;;;;;;;5135979;27;20197;-65
2023/01/22 12:56:00;;;;;;;25.73;17.10;;;;;;;;;;5135100;27;20204;-65
2023/01/22 12:58:30;;;;;;;30.77;15.77;;;;;;;;;;5135636;27;20183;-66
2023/01/22 13:01:01;;;;;;;32.70;18.60;;;;;;;;;;5136412;27;20199;-65
2023/01/22 13:03:29;;;;;;;32.28;17.58;;;;;;;;;;5135497;27;20216;-65
2023/01/22 13:05:56;;;;;;;21.70;16.08;;;;;;;;;;5135810;27;20289;-66
2023/01/22 13:08:28;;;;;;;39.08;17.77;;;;;;;;;;5135516;27;20202;-65
2023/01/22 13:10:56;;;;;;;28.05;16.63;;;;;;;;;;5135670;27;20187;-67
2023/01/22 13:13:26;;;;;;;27.88;16.98;;;;;;;;;;5135111;27;20203;-65
2023/01/22 13:15:55;;;;;;;26.38;15.98;;;;;;;;;;5135004;27;20235;-65
2023/01/22 13:18:25;;;;;;;31.98;18.02;;;;;;;;;;5135342;27;20684;-65
2023/01/22 13:20:55;;;;;;;26.25;16.98;;;;;;;;;;5135356;27;20213;-65
2023/01/22 13:23:22;;;;;;;23.63;15.13;;;;;;;;;;5135944;27;20350;-69
2023/01/22 13:25:53;;;;;;;26.35;17.10;;;;;;;;;;5135142;27;20198;-65
2023/01/22 13:28:21;;;;;;;26.38;16.67;;;;;;;;;;5135533;27;20185;-64
2023/01/22 13:30:57;;;;;;;27.17;16.70;;;;;;;;;;5134841;27;20197;-64
2023/01/22 13:33:24;;;;;;;27.63;17.33;;;;;;;;;;5135202;27;20190;-65
2023/01/22 13:35:52;;;;;;;29.77;18.33;;;;;;;;;;5134403;27;20208;-65
2023/01/22 13:38:20;;;;;;;28.10;16.85;;;;;;;;;;5134504;27;20208;-64
2023/01/22 13:40:49;;;;;;;24.48;17.55;;;;;;;;;;5134789;27;20193;-64
2023/01/22 13:43:17;;;;;;;28.00;16.85;;;;;;;;;;5134611;27;20241;-65
2023/01/22 13:45:45;;;;;;;29.48;17.58;;;;;;;;;;5134933;27;20201;-64
2023/01/22 13:48:16;;;;;;;26.45;15.38;;;;;;;;;;5135512;27;20225;-65
2023/01/22 13:50:46;;;;;;;27.23;14.93;;;;;;;;;;5134285;27;20182;-64
2023/01/22 13:53:23;;;;;;;30.92;17.30;;;;;;;;;;5134330;27;20241;-65
2023/01/22 13:55:50;;;;;;;23.10;15.23;;;;;;;;;;5133931;27;20194;-66
2023/01/22 13:58:34;;;;;;;24.00;14.82;;;;;;;;;;5134834;27;20205;-64
2023/01/22 14:01:01;;;;;;;22.80;15.77;;;;;;;;;;5134594;27;20564;-64
2023/01/22 14:03:30;;;;;;;28.40;16.70;;;;;;;;;;5134402;27;20230;-65
2023/01/22 14:06:04;;;;;;;22.83;16.42;;;;;;;;;;5134437;27;20201;-64
2023/01/22 14:08:31;;;;;;;26.50;17.40;;;;;;;;;;5134650;27;20189;-65
2023/01/22 14:10:59;;;;;;;21.63;15.65;;;;;;;;;;5134117;27;20203;-64
2023/01/22 14:13:26;;;;;;;31.00;17.85;;;;;;;;;;5133832;27;20203;-64
2023/01/22 14:15:56;;;;;;;27.83;15.95;;;;;;;;;;5134262;27;20189;-65
2023/01/22 14:18:23;;;;;;;27.20;15.70;;;;;;;;;;5133943;27;20693;-64
2023/01/22 14:20:51;;;;;;;22.50;17.05;;;;;;;;;;5134343;27;20234;-64
2023/01/22 14:23:19;;;;;;;23.90;15.45;;;;;;;;;;5134211;27;20303;-64
2023/01/22 14:25:47;;;;;;;28.92;14.70;;;;;;;;;;5134384;27;20288;-65
2023/01/22 14:28:14;;;;;;;29.67;16.92;;;;;;;;;;5133967;27;20198;-64
2023/01/22 14:30:41;;;;;;;21.63;14.90;;;;;;;;;;5133392;27;20297;-65
2023/01/22 14:33:11;;;;;;;26.52;15.48;;;;;;;;;;5133845;27;20190;-65